sensor_id;sensor_type;location;lat;lon;timestamp;P1;P2;P0
55076;PMS7003;40971;44.702;11.030;2023-03-20T00:08:12;74.89;63.33;40.56
55076;PMS7003;40971;44.702;11.030;2023-03-20T00:18:18;80.63;65.00;41.88
55076;PMS7003;40971;44.702;11.030;2023-03-20T00:28:28;79.00;65.33;41.33
55076;PMS7003;40971;44.702;11.030;2023-03-20T00:38:42;67.00;56.50;40.00
55076;PMS7003;40971;44.702;11.030;2023-03-20T00:48:46;70.88;58.13;37.50
55076;PMS7003;40971;44.702;11.030;2023-03-20T00:58:49;71.33;59.00;40.00
55076;PMS7003;40971;44.702;11.030;2023-03-20T01:08:52;74.67;60.00;37.67
55076;PMS7003;40971;44.702;11.030;2023-03-20T01:18:58;67.00;57.00;35.33
55076;PMS7003;40971;44.702;11.030;2023-03-20T01:29:02;68.00;54.00;36.00
55076;PMS7003;40971;44.702;11.030;2023-03-20T01:39:08;64.67;55.67;37.11
55076;PMS7003;40971;44.702;11.030;2023-03-20T01:59:22;57.00;51.00;33.33
55076;PMS7003;40971;44.702;11.030;2023-03-20T02:09:30;52.67;48.33;33.00
55076;PMS7003;40971;44.702;11.030;2023-03-20T02:50:36;54.00;48.00;31.67
55076;PMS7003;40971;44.702;11.030;2023-03-20T03:01:02;54.33;49.67;33.00
55076;PMS7003;40971;44.702;11.030;2023-03-20T03:11:17;57.33;48.33;31.00
55076;PMS7003;40971;44.702;11.030;2023-03-20T03:21:20;45.67;42.67;28.33
55076;PMS7003;40971;44.702;11.030;2023-03-20T03:31:25;49.00;48.00;30.00
55076;PMS7003;40971;44.702;11.030;2023-03-20T03:41:30;53.33;46.00;30.33
55076;PMS7003;40971;44.702;11.030;2023-03-20T03:51:34;61.00;48.33;31.67
55076;PMS7003;40971;44.702;11.030;2023-03-20T04:01:44;58.00;51.00;35.33
55076;PMS7003;40971;44.702;11.030;2023-03-20T04:11:49;63.00;54.00;34.00
55076;PMS7003;40971;44.702;11.030;2023-03-20T04:21:52;67.00;57.00;36.00
55076;PMS7003;40971;44.702;11.030;2023-03-20T04:31:56;65.67;57.33;36.00
55076;PMS7003;40971;44.702;11.030;2023-03-20T04:41:59;68.33;58.00;39.00
55076;PMS7003;40971;44.702;11.030;2023-03-20T04:52:02;71.33;60.33;39.00
55076;PMS7003;40971;44.702;11.030;2023-03-20T05:02:07;67.00;56.56;38.33
55076;PMS7003;40971;44.702;11.030;2023-03-20T05:12:10;72.33;58.67;40.00
55076;PMS7003;40971;44.702;11.030;2023-03-20T05:22:12;72.33;60.33;40.00
55076;PMS7003;40971;44.702;11.030;2023-03-20T05:32:15;72.00;57.67;39.00
55076;PMS7003;40971;44.702;11.030;2023-03-20T05:42:17;77.67;63.33;39.67
55076;PMS7003;40971;44.702;11.030;2023-03-20T05:52:19;71.50;60.00;40.00
55076;PMS7003;40971;44.702;11.030;2023-03-20T06:02:24;73.78;62.56;40.56
55076;PMS7003;40971;44.702;11.030;2023-03-20T06:12:27;76.33;63.33;40.67
55076;PMS7003;40971;44.702;11.030;2023-03-20T06:22:30;83.67;67.33;42.33
55076;PMS7003;40971;44.702;11.030;2023-03-20T06:32:35;81.75;67.00;44.00
55076;PMS7003;40971;44.702;11.030;2023-03-20T06:42:37;84.67;69.00;43.00
55076;PMS7003;40971;44.702;11.030;2023-03-20T06:52:39;75.00;61.00;40.00
55076;PMS7003;40971;44.702;11.030;2023-03-20T07:02:42;86.33;69.00;45.00
55076;PMS7003;40971;44.702;11.030;2023-03-20T07:12:45;77.00;64.00;43.00
55076;PMS7003;40971;44.702;11.030;2023-03-20T07:22:47;83.67;68.33;42.00
55076;PMS7003;40971;44.702;11.030;2023-03-20T07:32:52;76.00;64.22;40.89
55076;PMS7003;40971;44.702;11.030;2023-03-20T07:42:54;72.00;58.50;40.00
55076;PMS7003;40971;44.702;11.030;2023-03-20T07:52:59;71.44;58.00;39.78
55076;PMS7003;40971;44.702;11.030;2023-03-20T08:03:02;76.67;65.33;40.67
55076;PMS7003;40971;44.702;11.030;2023-03-20T08:13:07;54.78;48.33;33.33
55076;PMS7003;40971;44.702;11.030;2023-03-20T08:23:10;52.33;48.67;32.00
55076;PMS7003;40971;44.702;11.030;2023-03-20T08:33:14;50.63;47.13;31.00
55076;PMS7003;40971;44.702;11.030;2023-03-20T08:43:19;50.67;46.00;29.00
55076;PMS7003;40971;44.702;11.030;2023-03-20T08:53:22;60.50;51.00;32.25
55076;PMS7003;40971;44.702;11.030;2023-03-20T09:03:25;57.00;49.00;32.33
55076;PMS7003;40971;44.702;11.030;2023-03-20T09:13:27;56.33;48.00;30.00
55076;PMS7003;40971;44.702;11.030;2023-03-20T09:23:32;59.22;49.00;33.11
55076;PMS7003;40971;44.702;11.030;2023-03-20T09:33:34;49.33;42.33;30.33
55076;PMS7003;40971;44.702;11.030;2023-03-20T09:54:12;65.67;51.00;34.67
55076;PMS7003;40971;44.702;11.030;2023-03-20T10:04:30;69.00;57.67;38.00
55076;PMS7003;40971;44.702;11.030;2023-03-20T10:25:15;64.00;54.67;36.67
55076;PMS7003;40971;44.702;11.030;2023-03-20T10:36:01;65.33;51.33;36.00
55076;PMS7003;40971;44.702;11.030;2023-03-20T10:56:39;62.33;53.00;35.67
55076;PMS7003;40971;44.702;11.030;2023-03-20T11:06:51;68.67;55.67;37.00
55076;PMS7003;40971;44.702;11.030;2023-03-20T11:17:07;70.33;57.67;37.33
55076;PMS7003;40971;44.702;11.030;2023-03-20T11:37:21;68.00;56.33;35.67
55076;PMS7003;40971;44.702;11.030;2023-03-20T11:47:31;70.00;57.67;37.33
55076;PMS7003;40971;44.702;11.030;2023-03-20T11:57:39;66.67;56.33;37.33
55076;PMS7003;40971;44.702;11.030;2023-03-20T12:07:42;66.33;54.67;35.33
55076;PMS7003;40971;44.702;11.030;2023-03-20T12:28:02;69.67;57.33;37.33
55076;PMS7003;40971;44.702;11.030;2023-03-20T12:38:30;64.67;54.33;36.33
55076;PMS7003;40971;44.702;11.030;2023-03-20T12:58:40;66.00;54.67;36.00
55076;PMS7003;40971;44.702;11.030;2023-03-20T13:40:05;68.00;55.00;36.50
55076;PMS7003;40971;44.702;11.030;2023-03-20T13:50:41;69.25;55.50;36.25
55076;PMS7003;40971;44.702;11.030;2023-03-20T14:21:11;73.50;57.00;37.50
55076;PMS7003;40971;44.702;11.030;2023-03-20T14:31:22;69.33;56.00;38.33
55076;PMS7003;40971;44.702;11.030;2023-03-20T14:51:38;64.67;54.00;37.00
55076;PMS7003;40971;44.702;11.030;2023-03-20T15:02:17;67.50;55.50;35.00
55076;PMS7003;40971;44.702;11.030;2023-03-20T15:12:23;67.33;56.33;36.33
55076;PMS7003;40971;44.702;11.030;2023-03-20T15:22:28;64.33;54.00;36.00
55076;PMS7003;40971;44.702;11.030;2023-03-20T15:32:31;68.67;57.00;37.67
55076;PMS7003;40971;44.702;11.030;2023-03-20T15:42:35;69.00;57.33;36.33
55076;PMS7003;40971;44.702;11.030;2023-03-20T15:52:43;66.38;56.13;35.88
55076;PMS7003;40971;44.702;11.030;2023-03-20T16:02:53;64.33;54.00;35.67
55076;PMS7003;40971;44.702;11.030;2023-03-20T16:12:55;64.67;55.67;36.00
55076;PMS7003;40971;44.702;11.030;2023-03-20T16:23:00;65.67;54.33;36.00
55076;PMS7003;40971;44.702;11.030;2023-03-20T16:33:11;71.33;57.33;36.67
55076;PMS7003;40971;44.702;11.030;2023-03-20T16:43:17;67.67;56.33;38.33
55076;PMS7003;40971;44.702;11.030;2023-03-20T16:53:26;66.67;55.00;37.67
55076;PMS7003;40971;44.702;11.030;2023-03-20T17:13:46;70.33;56.00;38.00
55076;PMS7003;40971;44.702;11.030;2023-03-20T17:23:49;76.00;60.67;40.00
55076;PMS7003;40971;44.702;11.030;2023-03-20T17:33:51;77.33;62.00;39.67
55076;PMS7003;40971;44.702;11.030;2023-03-20T17:43:55;73.38;59.75;39.25
55076;PMS7003;40971;44.702;11.030;2023-03-20T17:53:57;76.33;60.67;39.33
55076;PMS7003;40971;44.702;11.030;2023-03-20T18:04:02;74.22;61.33;39.11
55076;PMS7003;40971;44.702;11.030;2023-03-20T18:14:05;71.00;59.00;38.00
55076;PMS7003;40971;44.702;11.030;2023-03-20T18:24:09;84.00;66.33;43.33
55076;PMS7003;40971;44.702;11.030;2023-03-20T18:34:11;84.00;68.00;45.33
55076;PMS7003;40971;44.702;11.030;2023-03-20T18:44:16;82.63;67.13;41.13
55076;PMS7003;40971;44.702;11.030;2023-03-20T18:54:21;81.67;66.11;43.78
55076;PMS7003;40971;44.702;11.030;2023-03-20T19:04:21;106.00;90.80;53.40
55076;PMS7003;40971;44.702;11.030;2023-03-20T19:14:27;85.75;70.63;46.25
55076;PMS7003;40971;44.702;11.030;2023-03-20T19:24:32;90.11;72.00;46.56
55076;PMS7003;40971;44.702;11.030;2023-03-20T19:34:34;89.33;71.33;46.67
55076;PMS7003;40971;44.702;11.030;2023-03-20T19:44:36;86.00;70.33;45.33
55076;PMS7003;40971;44.702;11.030;2023-03-20T19:54:42;90.00;72.78;45.00
55076;PMS7003;40971;44.702;11.030;2023-03-20T20:04:45;83.00;68.00;44.33
55076;PMS7003;40971;44.702;11.030;2023-03-20T20:14:50;68.89;57.67;38.11
55076;PMS7003;40971;44.702;11.030;2023-03-20T20:24:54;64.33;54.33;38.33
55076;PMS7003;40971;44.702;11.030;2023-03-20T20:34:56;64.00;53.00;34.00
55076;PMS7003;40971;44.702;11.030;2023-03-20T20:45:01;58.44;49.00;32.78
55076;PMS7003;40971;44.702;11.030;2023-03-20T20:55:06;53.33;49.00;33.33
55076;PMS7003;40971;44.702;11.030;2023-03-20T21:05:10;67.00;57.00;39.00
55076;PMS7003;40971;44.702;11.030;2023-03-20T21:15:14;77.33;63.00;39.00
55076;PMS7003;40971;44.702;11.030;2023-03-20T21:25:18;74.33;61.33;39.00
55076;PMS7003;40971;44.702;11.030;2023-03-20T21:35:22;81.67;67.00;42.00
55076;PMS7003;40971;44.702;11.030;2023-03-20T21:45:26;72.50;60.50;40.00
55076;PMS7003;40971;44.702;11.030;2023-03-20T21:55:31;66.63;54.63;35.00
55076;PMS7003;40971;44.702;11.030;2023-03-20T22:05:37;55.33;48.67;33.00
55076;PMS7003;40971;44.702;11.030;2023-03-20T22:15:40;68.33;58.00;40.00
55076;PMS7003;40971;44.702;11.030;2023-03-20T22:25:42;63.50;54.00;34.00
55076;PMS7003;40971;44.702;11.030;2023-03-20T22:35:44;63.00;52.67;34.00
55076;PMS7003;40971;44.702;11.030;2023-03-20T22:45:48;50.67;47.33;32.33
55076;PMS7003;40971;44.702;11.030;2023-03-20T22:55:54;57.44;50.67;34.33
55076;PMS7003;40971;44.702;11.030;2023-03-20T23:06:03;55.33;50.00;33.67
55076;PMS7003;40971;44.702;11.030;2023-03-20T23:16:07;54.33;48.33;33.00
55076;PMS7003;40971;44.702;11.030;2023-03-20T23:26:17;48.00;46.00;33.00
55076;PMS7003;40971;44.702;11.030;2023-03-20T23:36:23;39.33;37.67;21.67
55076;PMS7003;40971;44.702;11.030;2023-03-20T23:46:28;44.33;39.33;28.00
55076;PMS7003;40971;44.702;11.030;2023-03-20T23:56:30;49.60;43.20;29.60
